createdAt,value
2019-04-03T00:01:48.151Z,5.60
2019-04-03T00:06:55.181Z,5.70
2019-04-03T00:12:02.354Z,5.60
2019-04-03T00:17:09.934Z,5.60
2019-04-03T00:22:17.122Z,5.60
2019-04-03T00:27:24.275Z,5.60
2019-04-03T00:32:31.642Z,5.60
2019-04-03T00:37:39.531Z,5.50
2019-04-03T00:42:46.647Z,5.40
2019-04-03T00:47:55.383Z,5.40
2019-04-03T00:53:02.687Z,5.30
2019-04-03T00:58:41.806Z,5.20
2019-04-03T01:03:49.181Z,5.20
2019-04-03T01:08:56.252Z,5.20
2019-04-03T01:14:03.557Z,5.10
2019-04-03T01:19:11.114Z,5.10
2019-04-03T01:24:18.197Z,5.00
2019-04-03T01:29:25.526Z,4.90
2019-04-03T01:34:32.736Z,4.80
2019-04-03T01:39:40.344Z,4.90
2019-04-03T01:44:48.411Z,4.80
2019-04-03T01:49:58.146Z,4.70
2019-04-03T01:55:04.778Z,4.70
2019-04-03T02:00:12.367Z,4.70
2019-04-03T02:05:19.468Z,4.60
2019-04-03T02:10:27.801Z,4.60
2019-04-03T02:15:35.054Z,4.50
2019-04-03T02:20:43.331Z,4.50
2019-04-03T02:25:50.404Z,4.40
2019-04-03T02:30:59.269Z,4.40
2019-04-03T02:36:06.639Z,4.30
2019-04-03T02:41:13.876Z,4.30
2019-04-03T02:46:20.905Z,4.30
2019-04-03T02:51:28.404Z,4.30
2019-04-03T02:56:35.477Z,4.20
2019-04-03T03:01:42.762Z,4.20
2019-04-03T03:06:50.320Z,4.20
2019-04-03T03:11:59.099Z,4.10
2019-04-03T03:17:06.525Z,4.10
2019-04-03T03:22:16.859Z,4.10
2019-04-03T03:27:23.579Z,4.10
2019-04-03T03:32:35.262Z,4.00
2019-04-03T03:37:40.452Z,4.10
2019-04-03T03:42:48.661Z,4.00
2019-04-03T03:47:57.087Z,4.00
2019-04-03T03:53:05.026Z,4.00
2019-04-03T03:58:13.684Z,4.00
2019-04-03T04:03:21.632Z,4.00
2019-04-03T04:08:30.675Z,4.00
2019-04-03T04:13:39.165Z,3.90
2019-04-03T04:18:46.973Z,3.80
2019-04-03T04:23:57.247Z,3.80
2019-04-03T04:29:04.909Z,3.80
2019-04-03T04:34:12.186Z,3.80
2019-04-03T04:39:19.405Z,3.90
2019-04-03T04:44:26.927Z,4.00
2019-04-03T04:49:34.043Z,4.00
2019-04-03T04:54:42.947Z,4.10
2019-04-03T04:59:50.921Z,4.20
2019-04-03T05:04:58.052Z,4.30
2019-04-03T05:10:06.611Z,4.40
2019-04-03T05:15:13.909Z,4.50
2019-04-03T05:20:38.880Z,4.60
2019-04-03T05:25:46.106Z,4.70
2019-04-03T05:30:53.287Z,4.90
2019-04-03T05:36:00.457Z,5.10
2019-04-03T05:41:07.548Z,5.30
2019-04-03T05:46:14.778Z,5.50
2019-04-03T05:51:21.854Z,5.60
2019-04-03T05:56:29.726Z,5.80
2019-04-03T06:01:36.810Z,6.00
2019-04-03T06:06:46.058Z,6.20
2019-04-03T06:11:52.861Z,6.50
2019-04-03T06:17:18.098Z,6.70
2019-04-03T06:22:25.395Z,6.80
2019-04-03T06:27:32.746Z,7.10
2019-04-03T06:32:40.200Z,7.30
2019-04-03T06:37:48.287Z,7.50
2019-04-03T06:42:55.434Z,7.70
2019-04-03T06:48:04.273Z,7.90
2019-04-03T06:53:11.429Z,8.00
2019-04-03T06:58:18.633Z,8.10
2019-04-03T07:03:26.198Z,8.20
2019-04-03T07:08:36.204Z,8.30
2019-04-03T07:13:42.987Z,8.50
2019-04-03T07:18:50.401Z,8.70
2019-04-03T07:24:00.115Z,8.90
2019-04-03T07:29:06.644Z,9.00
2019-04-03T07:34:14.156Z,9.10
2019-04-03T07:39:21.655Z,9.20
2019-04-03T07:44:29.813Z,9.40
2019-04-03T07:49:39.374Z,9.60
2019-04-03T07:54:46.450Z,9.70
2019-04-03T07:59:53.774Z,10.10
2019-04-03T08:05:01.353Z,10.10
2019-04-03T08:10:09.408Z,10.40
2019-04-03T08:15:17.508Z,10.50
2019-04-03T08:20:25.716Z,10.70
2019-04-03T08:25:34.120Z,11.10
2019-04-03T08:30:41.246Z,11.50
2019-04-03T08:35:48.630Z,11.70
2019-04-03T08:40:56.006Z,11.60
2019-04-03T08:46:03.123Z,11.50
2019-04-03T08:51:10.418Z,11.60
2019-04-03T08:56:17.606Z,11.70
2019-04-03T09:01:26.147Z,12.10
2019-04-03T09:06:33.295Z,12.50
2019-04-03T09:11:40.416Z,12.80
2019-04-03T09:16:49.451Z,12.90
2019-04-03T09:21:56.858Z,13.10
2019-04-03T09:27:03.947Z,13.20
2019-04-03T09:32:12.859Z,13.40
2019-04-03T09:37:20.179Z,13.30
2019-04-03T09:42:28.762Z,13.60
2019-04-03T09:47:36.542Z,13.90
2019-04-03T09:52:48.699Z,14.00
2019-04-03T09:57:53.372Z,14.30
2019-04-03T10:03:00.770Z,14.40
2019-04-03T10:08:08.981Z,14.70
2019-04-03T10:13:17.068Z,14.80
2019-04-03T10:18:26.060Z,14.40
2019-04-03T10:23:33.291Z,14.60
2019-04-03T10:28:42.750Z,14.90
2019-04-03T10:33:49.285Z,15.30
2019-04-03T10:38:56.894Z,15.30
2019-04-03T10:44:04.893Z,15.60
2019-04-03T10:49:12.005Z,15.50
2019-04-03T10:54:19.326Z,15.80
2019-04-03T10:59:26.460Z,16.10
2019-04-03T11:04:33.584Z,16.00
2019-04-03T11:09:41.165Z,16.40
2019-04-03T11:14:48.356Z,16.80
2019-04-03T11:19:55.549Z,17.20
2019-04-03T11:25:02.991Z,17.10
2019-04-03T11:30:17.082Z,17.10
2019-04-03T11:35:22.492Z,17.30
2019-04-03T11:40:30.056Z,17.50
2019-04-03T11:45:37.218Z,17.90
2019-04-03T11:50:45.594Z,18.20
2019-04-03T11:55:53.050Z,19.10
2019-04-03T12:01:00.512Z,19.30
2019-04-03T12:06:07.969Z,19.30
2019-04-03T12:11:16.301Z,19.30
2019-04-03T12:16:24.877Z,20.60
2019-04-03T12:21:32.264Z,21.20
2019-04-03T12:26:42.276Z,22.30
2019-04-03T12:31:49.194Z,23.10
2019-04-03T12:36:56.286Z,23.20
2019-04-03T12:42:03.650Z,23.50
2019-04-03T12:47:12.955Z,24.30
2019-04-03T12:52:19.615Z,25.10
2019-04-03T12:57:26.897Z,26.00
2019-04-03T13:02:34.714Z,26.30
2019-04-03T13:07:41.991Z,27.00
2019-04-03T13:12:49.392Z,27.10
2019-04-03T13:17:56.632Z,26.90
2019-04-03T13:23:03.993Z,27.20
2019-04-03T13:28:11.458Z,27.60
2019-04-03T13:33:18.615Z,26.40
2019-04-03T13:38:28.200Z,27.10
2019-04-03T13:43:34.783Z,27.20
2019-04-03T13:48:44.078Z,26.40
2019-04-03T13:53:50.967Z,26.70
2019-04-03T13:58:59.502Z,26.20
2019-04-03T14:04:06.886Z,26.40
2019-04-03T14:09:16.531Z,26.70
2019-04-03T14:14:22.772Z,24.80
2019-04-03T14:19:41.819Z,24.80
2019-04-03T14:24:44.910Z,24.50
2019-04-03T14:29:47.802Z,24.60
2019-04-03T14:35:05.226Z,23.50
2019-04-03T14:40:06.082Z,23.20
2019-04-03T14:45:14.430Z,22.70
2019-04-03T14:50:22.494Z,22.80
2019-04-03T14:55:29.928Z,21.80
2019-04-03T15:00:37.188Z,20.70
2019-04-03T15:05:44.905Z,20.70
2019-04-03T15:10:52.307Z,20.30
2019-04-03T15:16:00.646Z,19.70
2019-04-03T15:21:08.269Z,19.10
2019-04-03T15:26:17.153Z,18.70
2019-04-03T15:31:24.656Z,17.90
2019-04-03T15:36:34.921Z,17.60
2019-04-03T15:41:41.439Z,17.40
2019-04-03T15:46:48.712Z,17.30
2019-04-03T15:51:56.238Z,17.00
2019-04-03T15:57:03.420Z,16.70
2019-04-03T16:02:12.453Z,16.70
2019-04-03T16:07:19.428Z,16.30
2019-04-03T16:12:28.104Z,16.10
2019-04-03T16:17:37.838Z,16.10
2019-04-03T16:22:44.931Z,16.30
2019-04-03T16:27:52.712Z,16.10
2019-04-03T16:33:03.558Z,15.90
2019-04-03T16:38:09.280Z,15.40
2019-04-03T16:43:16.636Z,14.90
2019-04-03T16:48:24.007Z,14.40
2019-04-03T16:53:31.528Z,14.00
2019-04-03T16:58:39.532Z,13.70
2019-04-03T17:03:46.578Z,13.50
2019-04-03T17:08:53.782Z,13.20
2019-04-03T17:14:01.172Z,13.00
2019-04-03T17:19:08.348Z,12.90
2019-04-03T17:24:16.051Z,12.60
2019-04-03T17:29:24.787Z,12.40
2019-04-03T17:34:32.012Z,12.40
2019-04-03T17:39:39.163Z,12.20
2019-04-03T17:44:46.283Z,12.00
2019-04-03T17:49:55.406Z,11.80
2019-04-03T17:55:02.549Z,11.70
2019-04-03T18:00:13.467Z,11.70
2019-04-03T18:05:21.574Z,11.60
2019-04-03T18:10:30.496Z,11.60
2019-04-03T18:15:37.587Z,11.60
2019-04-03T18:20:45.248Z,11.50
2019-04-03T18:25:52.960Z,11.30
2019-04-03T18:31:00.105Z,11.30
2019-04-03T18:36:07.304Z,11.30
2019-04-03T18:41:14.956Z,11.20
2019-04-03T18:46:31.950Z,11.20
2019-04-03T18:51:32.014Z,11.20
2019-04-03T18:56:39.495Z,11.10
2019-04-03T19:01:50.118Z,11.10
2019-04-03T19:06:57.485Z,11.00
2019-04-03T19:12:08.591Z,10.90
2019-04-03T19:17:15.184Z,10.90
2019-04-03T19:22:25.332Z,10.90
2019-04-03T19:27:31.087Z,10.80
2019-04-03T19:32:42.753Z,10.70
2019-04-03T19:37:48.446Z,10.60
2019-04-03T19:42:55.690Z,10.60
2019-04-03T19:48:02.670Z,10.50
2019-04-03T19:53:12.966Z,10.50
2019-04-03T19:58:18.803Z,10.40
2019-04-03T20:03:25.893Z,10.40
2019-04-03T20:08:33.231Z,10.30
2019-04-03T20:13:40.551Z,10.20
2019-04-03T20:18:48.943Z,10.10
2019-04-03T20:23:56.638Z,10.10
2019-04-03T20:29:03.810Z,10.00
2019-04-03T20:34:13.095Z,10.00
2019-04-03T20:39:20.140Z,9.80
2019-04-03T20:44:27.237Z,9.80
2019-04-03T20:49:35.735Z,9.80
2019-04-03T20:54:43.170Z,9.60
2019-04-03T20:59:58.797Z,9.50
2019-04-03T21:04:59.187Z,9.50
2019-04-03T21:10:08.060Z,9.40
2019-04-03T21:15:15.304Z,9.40
2019-04-03T21:20:26.715Z,9.40
2019-04-03T21:25:36.126Z,9.30
2019-04-03T21:30:43.623Z,9.30
2019-04-03T21:35:50.718Z,9.30
2019-04-03T21:40:57.915Z,9.20
2019-04-03T21:46:07.027Z,9.20
2019-04-03T21:51:15.676Z,9.10
2019-04-03T21:56:22.754Z,9.10
2019-04-03T22:01:29.835Z,9.10
2019-04-03T22:06:38.130Z,9.10
2019-04-03T22:11:45.344Z,9.10
2019-04-03T22:16:52.402Z,9.10
2019-04-03T22:22:01.052Z,9.10
2019-04-03T22:27:11.355Z,9.10
2019-04-03T22:32:17.301Z,9.10
2019-04-03T22:37:24.707Z,9.10
2019-04-03T22:42:31.805Z,9.10
2019-04-03T22:47:38.906Z,9.10
2019-04-03T22:52:45.969Z,9.10
2019-04-03T22:57:53.182Z,9.00
2019-04-03T23:03:02.570Z,9.10
2019-04-03T23:08:09.328Z,9.10
2019-04-03T23:13:16.310Z,9.00
2019-04-03T23:18:23.510Z,9.00
2019-04-03T23:23:30.616Z,8.90
2019-04-03T23:28:38.100Z,8.90
2019-04-03T23:33:45.965Z,8.80
2019-04-03T23:38:56.454Z,8.70
2019-04-03T23:44:05.443Z,8.50
2019-04-03T23:49:12.565Z,8.50
2019-04-03T23:54:19.677Z,8.50
2019-04-03T23:59:26.767Z,8.40
